sensor_id;sensor_type;location;lat;lon;timestamp;temperature;humidity
6822;DHT22;3449;48.728;8.968;2023-11-21T00:02:25;6.40;99.90
6822;DHT22;3449;48.728;8.968;2023-11-21T00:04:54;6.40;99.90
6822;DHT22;3449;48.728;8.968;2023-11-21T00:07:20;6.50;99.90
6822;DHT22;3449;48.728;8.968;2023-11-21T00:09:48;6.50;99.90
6822;DHT22;3449;48.728;8.968;2023-11-21T00:12:15;6.50;99.90
6822;DHT22;3449;48.728;8.968;2023-11-21T00:14:42;6.40;99.90
6822;DHT22;3449;48.728;8.968;2023-11-21T00:17:09;6.40;99.90
6822;DHT22;3449;48.728;8.968;2023-11-21T00:19:36;6.50;99.90
6822;DHT22;3449;48.728;8.968;2023-11-21T00:22:04;6.40;99.90
6822;DHT22;3449;48.728;8.968;2023-11-21T00:24:32;6.50;99.90
6822;DHT22;3449;48.728;8.968;2023-11-21T00:26:58;6.50;99.90
6822;DHT22;3449;48.728;8.968;2023-11-21T00:29:25;6.50;99.90
6822;DHT22;3449;48.728;8.968;2023-11-21T00:31:52;6.50;99.90
6822;DHT22;3449;48.728;8.968;2023-11-21T00:34:20;6.50;99.90
6822;DHT22;3449;48.728;8.968;2023-11-21T00:36:46;6.50;99.90
6822;DHT22;3449;48.728;8.968;2023-11-21T00:39:15;6.50;99.90
6822;DHT22;3449;48.728;8.968;2023-11-21T00:41:42;6.50;99.90
6822;DHT22;3449;48.728;8.968;2023-11-21T00:44:10;6.50;99.90
6822;DHT22;3449;48.728;8.968;2023-11-21T00:46:37;6.50;99.90
6822;DHT22;3449;48.728;8.968;2023-11-21T00:49:04;6.50;99.90
6822;DHT22;3449;48.728;8.968;2023-11-21T00:51:31;6.60;99.90
6822;DHT22;3449;48.728;8.968;2023-11-21T00:53:58;6.60;99.90
6822;DHT22;3449;48.728;8.968;2023-11-21T00:56:27;6.60;99.90
6822;DHT22;3449;48.728;8.968;2023-11-21T00:58:54;6.60;99.90
6822;DHT22;3449;48.728;8.968;2023-11-21T01:01:21;6.60;99.90
6822;DHT22;3449;48.728;8.968;2023-11-21T01:03:49;6.60;99.90
6822;DHT22;3449;48.728;8.968;2023-11-21T01:06:16;6.60;99.90
6822;DHT22;3449;48.728;8.968;2023-11-21T01:08:43;6.60;99.90
6822;DHT22;3449;48.728;8.968;2023-11-21T01:11:10;6.60;99.90
6822;DHT22;3449;48.728;8.968;2023-11-21T01:13:40;6.60;99.90
6822;DHT22;3449;48.728;8.968;2023-11-21T01:16:08;6.60;99.90
6822;DHT22;3449;48.728;8.968;2023-11-21T01:18:35;6.70;99.90
6822;DHT22;3449;48.728;8.968;2023-11-21T01:21:02;6.60;99.90
6822;DHT22;3449;48.728;8.968;2023-11-21T01:23:29;6.70;99.90
6822;DHT22;3449;48.728;8.968;2023-11-21T01:25:56;6.70;99.90
6822;DHT22;3449;48.728;8.968;2023-11-21T01:28:23;6.70;99.90
6822;DHT22;3449;48.728;8.968;2023-11-21T01:30:52;6.70;99.90
6822;DHT22;3449;48.728;8.968;2023-11-21T01:33:21;6.70;99.90
6822;DHT22;3449;48.728;8.968;2023-11-21T01:35:50;6.70;99.90
6822;DHT22;3449;48.728;8.968;2023-11-21T01:38:19;6.70;99.90
6822;DHT22;3449;48.728;8.968;2023-11-21T01:40:46;6.70;99.90
6822;DHT22;3449;48.728;8.968;2023-11-21T01:43:13;6.70;99.90
6822;DHT22;3449;48.728;8.968;2023-11-21T01:45:40;6.70;99.90
6822;DHT22;3449;48.728;8.968;2023-11-21T01:48:08;6.70;99.90
6822;DHT22;3449;48.728;8.968;2023-11-21T01:50:36;6.70;99.90
6822;DHT22;3449;48.728;8.968;2023-11-21T01:53:03;6.70;99.90
6822;DHT22;3449;48.728;8.968;2023-11-21T01:55:30;6.70;99.90
6822;DHT22;3449;48.728;8.968;2023-11-21T01:57:59;6.70;99.90
6822;DHT22;3449;48.728;8.968;2023-11-21T02:00:27;6.70;99.90
6822;DHT22;3449;48.728;8.968;2023-11-21T02:02:55;6.60;99.90
6822;DHT22;3449;48.728;8.968;2023-11-21T02:05:23;6.60;99.90
6822;DHT22;3449;48.728;8.968;2023-11-21T02:07:51;6.70;99.90
6822;DHT22;3449;48.728;8.968;2023-11-21T02:10:19;6.70;99.90
6822;DHT22;3449;48.728;8.968;2023-11-21T02:12:48;6.60;99.90
6822;DHT22;3449;48.728;8.968;2023-11-21T02:15:18;6.60;99.90
6822;DHT22;3449;48.728;8.968;2023-11-21T02:17:47;6.70;99.90
6822;DHT22;3449;48.728;8.968;2023-11-21T02:20:17;6.60;99.90
6822;DHT22;3449;48.728;8.968;2023-11-21T02:22:50;6.60;99.90
6822;DHT22;3449;48.728;8.968;2023-11-21T02:25:18;6.60;99.90
6822;DHT22;3449;48.728;8.968;2023-11-21T02:27:45;6.60;99.90
6822;DHT22;3449;48.728;8.968;2023-11-21T02:30:14;6.60;99.90
6822;DHT22;3449;48.728;8.968;2023-11-21T02:32:41;6.60;99.90
6822;DHT22;3449;48.728;8.968;2023-11-21T02:35:09;6.60;99.90
6822;DHT22;3449;48.728;8.968;2023-11-21T02:37:37;6.60;99.90
6822;DHT22;3449;48.728;8.968;2023-11-21T02:40:08;6.60;99.90
6822;DHT22;3449;48.728;8.968;2023-11-21T02:42:36;6.60;99.90
6822;DHT22;3449;48.728;8.968;2023-11-21T02:45:03;6.60;99.90
6822;DHT22;3449;48.728;8.968;2023-11-21T02:47:31;6.60;99.90
6822;DHT22;3449;48.728;8.968;2023-11-21T02:49:57;6.60;99.90
6822;DHT22;3449;48.728;8.968;2023-11-21T02:52:24;6.60;99.90
6822;DHT22;3449;48.728;8.968;2023-11-21T02:54:51;6.60;99.90
6822;DHT22;3449;48.728;8.968;2023-11-21T02:57:19;6.50;99.90
6822;DHT22;3449;48.728;8.968;2023-11-21T02:59:46;6.50;99.90
6822;DHT22;3449;48.728;8.968;2023-11-21T03:02:13;6.50;99.90
6822;DHT22;3449;48.728;8.968;2023-11-21T03:04:41;6.40;99.90
6822;DHT22;3449;48.728;8.968;2023-11-21T03:07:09;6.40;99.90
6822;DHT22;3449;48.728;8.968;2023-11-21T03:09:36;6.40;99.90
6822;DHT22;3449;48.728;8.968;2023-11-21T03:12:03;6.40;99.90
6822;DHT22;3449;48.728;8.968;2023-11-21T03:14:31;6.40;99.90
6822;DHT22;3449;48.728;8.968;2023-11-21T03:16:59;6.40;99.90
6822;DHT22;3449;48.728;8.968;2023-11-21T03:19:25;6.40;99.90
6822;DHT22;3449;48.728;8.968;2023-11-21T03:21:52;6.40;99.90
6822;DHT22;3449;48.728;8.968;2023-11-21T03:24:19;6.40;99.90
6822;DHT22;3449;48.728;8.968;2023-11-21T03:26:48;6.40;99.90
6822;DHT22;3449;48.728;8.968;2023-11-21T03:29:15;6.40;99.90
6822;DHT22;3449;48.728;8.968;2023-11-21T03:31:43;6.40;99.90
6822;DHT22;3449;48.728;8.968;2023-11-21T03:34:15;6.40;99.90
6822;DHT22;3449;48.728;8.968;2023-11-21T03:36:43;6.40;99.90
6822;DHT22;3449;48.728;8.968;2023-11-21T03:39:11;6.40;99.90
6822;DHT22;3449;48.728;8.968;2023-11-21T03:41:38;6.50;99.90
6822;DHT22;3449;48.728;8.968;2023-11-21T03:44:05;6.50;99.90
6822;DHT22;3449;48.728;8.968;2023-11-21T03:46:32;6.50;99.90
6822;DHT22;3449;48.728;8.968;2023-11-21T03:49:00;6.50;99.90
6822;DHT22;3449;48.728;8.968;2023-11-21T03:51:27;6.50;99.90
6822;DHT22;3449;48.728;8.968;2023-11-21T03:53:54;6.50;99.90
6822;DHT22;3449;48.728;8.968;2023-11-21T03:56:21;6.50;99.90
6822;DHT22;3449;48.728;8.968;2023-11-21T03:58:48;6.50;99.90
6822;DHT22;3449;48.728;8.968;2023-11-21T04:01:20;6.50;99.90
6822;DHT22;3449;48.728;8.968;2023-11-21T04:03:48;6.40;99.90
6822;DHT22;3449;48.728;8.968;2023-11-21T04:06:16;6.40;99.90
6822;DHT22;3449;48.728;8.968;2023-11-21T04:08:43;6.40;99.90
6822;DHT22;3449;48.728;8.968;2023-11-21T04:11:11;6.40;99.90
6822;DHT22;3449;48.728;8.968;2023-11-21T04:13:38;6.40;99.90
6822;DHT22;3449;48.728;8.968;2023-11-21T04:16:06;6.40;99.90
6822;DHT22;3449;48.728;8.968;2023-11-21T04:18:33;6.40;99.90
6822;DHT22;3449;48.728;8.968;2023-11-21T04:21:00;6.40;99.90
6822;DHT22;3449;48.728;8.968;2023-11-21T04:23:29;6.40;99.90
6822;DHT22;3449;48.728;8.968;2023-11-21T04:25:57;6.40;99.90
6822;DHT22;3449;48.728;8.968;2023-11-21T04:28:24;6.40;99.90
6822;DHT22;3449;48.728;8.968;2023-11-21T04:30:51;6.40;99.90
6822;DHT22;3449;48.728;8.968;2023-11-21T04:33:18;6.40;99.90
6822;DHT22;3449;48.728;8.968;2023-11-21T04:35:45;6.40;99.90
6822;DHT22;3449;48.728;8.968;2023-11-21T04:38:11;6.40;99.90
6822;DHT22;3449;48.728;8.968;2023-11-21T04:40:40;6.40;99.90
6822;DHT22;3449;48.728;8.968;2023-11-21T04:43:06;6.60;99.90
6822;DHT22;3449;48.728;8.968;2023-11-21T04:45:33;6.40;99.90
6822;DHT22;3449;48.728;8.968;2023-11-21T04:48:00;6.50;99.90
6822;DHT22;3449;48.728;8.968;2023-11-21T04:50:27;6.40;99.90
6822;DHT22;3449;48.728;8.968;2023-11-21T04:52:54;6.40;99.90
6822;DHT22;3449;48.728;8.968;2023-11-21T04:55:20;6.40;99.90
6822;DHT22;3449;48.728;8.968;2023-11-21T04:57:49;6.40;99.90
6822;DHT22;3449;48.728;8.968;2023-11-21T05:00:16;6.40;99.90
6822;DHT22;3449;48.728;8.968;2023-11-21T05:02:43;6.40;99.90
6822;DHT22;3449;48.728;8.968;2023-11-21T05:05:10;6.40;99.90
6822;DHT22;3449;48.728;8.968;2023-11-21T05:07:37;6.40;99.90
6822;DHT22;3449;48.728;8.968;2023-11-21T05:10:05;6.40;99.90
6822;DHT22;3449;48.728;8.968;2023-11-21T05:12:37;6.40;99.90
6822;DHT22;3449;48.728;8.968;2023-11-21T05:15:07;6.40;99.90
6822;DHT22;3449;48.728;8.968;2023-11-21T05:17:35;6.30;99.90
6822;DHT22;3449;48.728;8.968;2023-11-21T05:20:03;6.30;99.90
6822;DHT22;3449;48.728;8.968;2023-11-21T05:22:33;6.30;99.90
6822;DHT22;3449;48.728;8.968;2023-11-21T05:25:00;6.30;99.90
6822;DHT22;3449;48.728;8.968;2023-11-21T05:27:28;6.20;99.90
6822;DHT22;3449;48.728;8.968;2023-11-21T05:29:55;6.20;99.90
6822;DHT22;3449;48.728;8.968;2023-11-21T05:32:23;6.20;99.90
6822;DHT22;3449;48.728;8.968;2023-11-21T05:34:50;6.20;99.90
6822;DHT22;3449;48.728;8.968;2023-11-21T05:37:17;6.20;99.90
6822;DHT22;3449;48.728;8.968;2023-11-21T05:39:44;6.20;99.90
6822;DHT22;3449;48.728;8.968;2023-11-21T05:42:11;6.20;99.90
6822;DHT22;3449;48.728;8.968;2023-11-21T05:44:41;6.20;99.90
6822;DHT22;3449;48.728;8.968;2023-11-21T05:47:08;6.10;99.90
6822;DHT22;3449;48.728;8.968;2023-11-21T05:49:36;6.20;99.90
6822;DHT22;3449;48.728;8.968;2023-11-21T05:52:04;6.20;99.90
6822;DHT22;3449;48.728;8.968;2023-11-21T05:54:31;6.20;99.90
6822;DHT22;3449;48.728;8.968;2023-11-21T05:56:59;6.20;99.90
6822;DHT22;3449;48.728;8.968;2023-11-21T05:59:26;6.10;99.90
6822;DHT22;3449;48.728;8.968;2023-11-21T06:01:53;6.10;99.90
6822;DHT22;3449;48.728;8.968;2023-11-21T06:04:20;6.10;99.90
6822;DHT22;3449;48.728;8.968;2023-11-21T06:06:51;6.00;99.90
6822;DHT22;3449;48.728;8.968;2023-11-21T06:09:19;6.00;99.90
6822;DHT22;3449;48.728;8.968;2023-11-21T06:11:48;6.00;99.90
6822;DHT22;3449;48.728;8.968;2023-11-21T06:14:15;6.00;99.90
6822;DHT22;3449;48.728;8.968;2023-11-21T06:16:43;6.00;99.90
6822;DHT22;3449;48.728;8.968;2023-11-21T06:19:10;6.00;99.90
6822;DHT22;3449;48.728;8.968;2023-11-21T06:21:37;6.00;99.90
6822;DHT22;3449;48.728;8.968;2023-11-21T06:24:06;6.00;99.90
6822;DHT22;3449;48.728;8.968;2023-11-21T06:26:33;6.00;99.90
6822;DHT22;3449;48.728;8.968;2023-11-21T06:29:00;6.00;99.90
6822;DHT22;3449;48.728;8.968;2023-11-21T06:31:28;6.10;99.90
6822;DHT22;3449;48.728;8.968;2023-11-21T06:33:55;6.00;99.90
6822;DHT22;3449;48.728;8.968;2023-11-21T06:36:23;6.00;99.90
6822;DHT22;3449;48.728;8.968;2023-11-21T06:38:50;6.00;99.90
6822;DHT22;3449;48.728;8.968;2023-11-21T06:41:18;6.10;99.90
6822;DHT22;3449;48.728;8.968;2023-11-21T06:43:45;6.00;99.90
6822;DHT22;3449;48.728;8.968;2023-11-21T06:46:12;6.10;99.90
6822;DHT22;3449;48.728;8.968;2023-11-21T06:48:41;6.10;99.90
6822;DHT22;3449;48.728;8.968;2023-11-21T06:51:08;6.10;99.90
6822;DHT22;3449;48.728;8.968;2023-11-21T06:53:36;6.10;99.90
6822;DHT22;3449;48.728;8.968;2023-11-21T06:56:03;6.10;99.90
6822;DHT22;3449;48.728;8.968;2023-11-21T06:58:33;6.10;99.90
6822;DHT22;3449;48.728;8.968;2023-11-21T07:01:00;6.20;99.90
6822;DHT22;3449;48.728;8.968;2023-11-21T07:03:27;6.20;99.90
6822;DHT22;3449;48.728;8.968;2023-11-21T07:05:54;6.20;99.90
6822;DHT22;3449;48.728;8.968;2023-11-21T07:08:21;6.20;99.90
6822;DHT22;3449;48.728;8.968;2023-11-21T07:10:48;6.20;99.90
6822;DHT22;3449;48.728;8.968;2023-11-21T07:13:15;6.20;99.90
6822;DHT22;3449;48.728;8.968;2023-11-21T07:15:43;6.30;99.90
6822;DHT22;3449;48.728;8.968;2023-11-21T07:18:10;6.30;99.90
6822;DHT22;3449;48.728;8.968;2023-11-21T07:20:37;6.30;99.90
6822;DHT22;3449;48.728;8.968;2023-11-21T07:23:04;6.30;99.90
6822;DHT22;3449;48.728;8.968;2023-11-21T07:25:31;6.30;99.90
6822;DHT22;3449;48.728;8.968;2023-11-21T07:27:59;6.30;99.90
6822;DHT22;3449;48.728;8.968;2023-11-21T07:30:26;6.30;99.90
6822;DHT22;3449;48.728;8.968;2023-11-21T07:32:54;6.30;99.90
6822;DHT22;3449;48.728;8.968;2023-11-21T07:35:21;6.40;99.90
6822;DHT22;3449;48.728;8.968;2023-11-21T07:37:47;6.40;99.90
6822;DHT22;3449;48.728;8.968;2023-11-21T07:40:15;6.50;99.90
6822;DHT22;3449;48.728;8.968;2023-11-21T07:42:42;6.50;99.90
6822;DHT22;3449;48.728;8.968;2023-11-21T07:45:09;6.50;99.90
6822;DHT22;3449;48.728;8.968;2023-11-21T07:47:37;6.50;99.90
6822;DHT22;3449;48.728;8.968;2023-11-21T07:50:07;6.50;99.90
6822;DHT22;3449;48.728;8.968;2023-11-21T07:52:34;6.50;99.90
6822;DHT22;3449;48.728;8.968;2023-11-21T07:55:01;6.50;99.90
6822;DHT22;3449;48.728;8.968;2023-11-21T07:57:29;6.50;99.90
6822;DHT22;3449;48.728;8.968;2023-11-21T07:59:56;6.50;99.90
6822;DHT22;3449;48.728;8.968;2023-11-21T08:02:22;6.50;99.90
6822;DHT22;3449;48.728;8.968;2023-11-21T08:04:49;6.60;99.90
6822;DHT22;3449;48.728;8.968;2023-11-21T08:07:18;6.70;99.90
6822;DHT22;3449;48.728;8.968;2023-11-21T08:09:45;6.70;99.90
6822;DHT22;3449;48.728;8.968;2023-11-21T08:12:14;6.80;99.90
6822;DHT22;3449;48.728;8.968;2023-11-21T08:14:42;6.80;99.90
6822;DHT22;3449;48.728;8.968;2023-11-21T08:17:10;6.80;99.90
6822;DHT22;3449;48.728;8.968;2023-11-21T08:19:36;6.90;99.90
6822;DHT22;3449;48.728;8.968;2023-11-21T08:22:03;7.00;99.90
6822;DHT22;3449;48.728;8.968;2023-11-21T08:24:35;7.10;99.90
6822;DHT22;3449;48.728;8.968;2023-11-21T08:27:03;7.20;99.90
6822;DHT22;3449;48.728;8.968;2023-11-21T08:29:30;7.20;99.90
6822;DHT22;3449;48.728;8.968;2023-11-21T08:31:57;7.30;99.90
6822;DHT22;3449;48.728;8.968;2023-11-21T08:34:25;7.30;99.90
6822;DHT22;3449;48.728;8.968;2023-11-21T08:36:52;7.20;99.90
6822;DHT22;3449;48.728;8.968;2023-11-21T08:39:19;7.20;99.90
6822;DHT22;3449;48.728;8.968;2023-11-21T08:41:47;7.30;99.90
6822;DHT22;3449;48.728;8.968;2023-11-21T08:44:14;7.30;99.90
6822;DHT22;3449;48.728;8.968;2023-11-21T08:46:43;7.30;99.90
6822;DHT22;3449;48.728;8.968;2023-11-21T08:49:10;7.30;99.90
6822;DHT22;3449;48.728;8.968;2023-11-21T08:51:38;7.30;99.90
6822;DHT22;3449;48.728;8.968;2023-11-21T08:54:05;7.30;99.90
6822;DHT22;3449;48.728;8.968;2023-11-21T08:56:33;7.30;99.90
6822;DHT22;3449;48.728;8.968;2023-11-21T08:59:02;7.30;99.90
6822;DHT22;3449;48.728;8.968;2023-11-21T09:01:29;7.30;99.90
6822;DHT22;3449;48.728;8.968;2023-11-21T09:03:57;7.40;99.90
6822;DHT22;3449;48.728;8.968;2023-11-21T09:06:24;7.40;99.90
6822;DHT22;3449;48.728;8.968;2023-11-21T09:08:51;7.30;99.90
6822;DHT22;3449;48.728;8.968;2023-11-21T09:11:18;7.30;99.90
6822;DHT22;3449;48.728;8.968;2023-11-21T09:13:45;7.30;99.90
6822;DHT22;3449;48.728;8.968;2023-11-21T09:16:14;7.30;99.90
6822;DHT22;3449;48.728;8.968;2023-11-21T09:18:41;7.20;99.90
6822;DHT22;3449;48.728;8.968;2023-11-21T09:21:08;7.20;99.90
6822;DHT22;3449;48.728;8.968;2023-11-21T09:23:36;7.20;99.90
6822;DHT22;3449;48.728;8.968;2023-11-21T09:26:03;7.20;99.90
6822;DHT22;3449;48.728;8.968;2023-11-21T09:28:31;7.20;99.90
6822;DHT22;3449;48.728;8.968;2023-11-21T09:30:58;7.20;99.90
6822;DHT22;3449;48.728;8.968;2023-11-21T09:33:26;7.20;99.90
6822;DHT22;3449;48.728;8.968;2023-11-21T09:35:53;7.20;99.90
6822;DHT22;3449;48.728;8.968;2023-11-21T09:38:19;7.30;99.90
6822;DHT22;3449;48.728;8.968;2023-11-21T09:40:46;7.20;99.90
6822;DHT22;3449;48.728;8.968;2023-11-21T09:43:17;7.20;99.90
6822;DHT22;3449;48.728;8.968;2023-11-21T09:45:45;7.30;99.90
6822;DHT22;3449;48.728;8.968;2023-11-21T09:48:14;7.30;99.90
6822;DHT22;3449;48.728;8.968;2023-11-21T09:50:43;7.30;99.90
6822;DHT22;3449;48.728;8.968;2023-11-21T09:53:16;7.30;99.90
6822;DHT22;3449;48.728;8.968;2023-11-21T09:55:44;7.30;99.90
6822;DHT22;3449;48.728;8.968;2023-11-21T09:58:11;7.40;99.90
6822;DHT22;3449;48.728;8.968;2023-11-21T10:00:41;7.40;99.90
6822;DHT22;3449;48.728;8.968;2023-11-21T10:03:08;7.40;99.90
6822;DHT22;3449;48.728;8.968;2023-11-21T10:05:35;7.50;99.90
6822;DHT22;3449;48.728;8.968;2023-11-21T10:08:06;7.50;99.90
6822;DHT22;3449;48.728;8.968;2023-11-21T10:10:33;7.50;99.90
6822;DHT22;3449;48.728;8.968;2023-11-21T10:13:03;7.50;99.90
6822;DHT22;3449;48.728;8.968;2023-11-21T10:15:33;7.60;99.90
6822;DHT22;3449;48.728;8.968;2023-11-21T10:18:03;7.60;99.90
6822;DHT22;3449;48.728;8.968;2023-11-21T10:20:31;7.60;99.90
6822;DHT22;3449;48.728;8.968;2023-11-21T10:22:59;7.60;99.90
6822;DHT22;3449;48.728;8.968;2023-11-21T10:25:28;7.70;99.90
6822;DHT22;3449;48.728;8.968;2023-11-21T10:27:58;7.70;99.90
6822;DHT22;3449;48.728;8.968;2023-11-21T10:30:30;7.60;99.90
6822;DHT22;3449;48.728;8.968;2023-11-21T10:32:59;7.70;99.90
6822;DHT22;3449;48.728;8.968;2023-11-21T10:35:39;7.60;99.90
6822;DHT22;3449;48.728;8.968;2023-11-21T10:38:06;7.70;99.90
6822;DHT22;3449;48.728;8.968;2023-11-21T10:40:39;7.70;99.90
6822;DHT22;3449;48.728;8.968;2023-11-21T10:43:08;7.70;99.90
6822;DHT22;3449;48.728;8.968;2023-11-21T10:45:36;7.70;99.90
6822;DHT22;3449;48.728;8.968;2023-11-21T10:48:05;7.70;99.90
6822;DHT22;3449;48.728;8.968;2023-11-21T10:50:33;7.70;99.90
6822;DHT22;3449;48.728;8.968;2023-11-21T10:53:02;7.70;99.90
6822;DHT22;3449;48.728;8.968;2023-11-21T10:55:29;7.70;99.90
6822;DHT22;3449;48.728;8.968;2023-11-21T10:57:59;7.70;99.90
6822;DHT22;3449;48.728;8.968;2023-11-21T11:00:29;7.70;99.90
6822;DHT22;3449;48.728;8.968;2023-11-21T11:02:55;7.70;99.90
6822;DHT22;3449;48.728;8.968;2023-11-21T11:05:26;7.70;99.90
6822;DHT22;3449;48.728;8.968;2023-11-21T11:07:58;7.70;99.90
6822;DHT22;3449;48.728;8.968;2023-11-21T11:10:26;7.70;99.90
6822;DHT22;3449;48.728;8.968;2023-11-21T11:12:55;7.80;99.90
6822;DHT22;3449;48.728;8.968;2023-11-21T11:15:24;7.80;99.90
6822;DHT22;3449;48.728;8.968;2023-11-21T11:17:52;7.80;99.90
6822;DHT22;3449;48.728;8.968;2023-11-21T11:20:23;7.80;99.90
6822;DHT22;3449;48.728;8.968;2023-11-21T11:23:04;7.90;99.90
6822;DHT22;3449;48.728;8.968;2023-11-21T11:25:52;7.90;99.90
6822;DHT22;3449;48.728;8.968;2023-11-21T11:28:35;8.00;99.90
6822;DHT22;3449;48.728;8.968;2023-11-21T11:31:15;8.10;99.90
6822;DHT22;3449;48.728;8.968;2023-11-21T11:33:50;8.20;99.90
6822;DHT22;3449;48.728;8.968;2023-11-21T11:36:25;8.10;99.90
6822;DHT22;3449;48.728;8.968;2023-11-21T11:38:53;8.00;99.90
6822;DHT22;3449;48.728;8.968;2023-11-21T11:41:25;7.90;99.90
6822;DHT22;3449;48.728;8.968;2023-11-21T11:43:53;8.00;99.90
6822;DHT22;3449;48.728;8.968;2023-11-21T11:46:40;7.90;99.90
6822;DHT22;3449;48.728;8.968;2023-11-21T11:49:08;8.00;99.90
6822;DHT22;3449;48.728;8.968;2023-11-21T11:51:35;8.00;99.90
6822;DHT22;3449;48.728;8.968;2023-11-21T11:54:02;8.00;99.90
6822;DHT22;3449;48.728;8.968;2023-11-21T11:56:32;8.00;99.90
6822;DHT22;3449;48.728;8.968;2023-11-21T11:59:00;8.10;99.90
6822;DHT22;3449;48.728;8.968;2023-11-21T12:01:30;8.00;99.90
6822;DHT22;3449;48.728;8.968;2023-11-21T12:04:23;8.00;99.90
6822;DHT22;3449;48.728;8.968;2023-11-21T12:06:57;8.00;99.90
6822;DHT22;3449;48.728;8.968;2023-11-21T12:09:26;8.00;99.90
6822;DHT22;3449;48.728;8.968;2023-11-21T12:11:55;8.00;99.90
6822;DHT22;3449;48.728;8.968;2023-11-21T12:14:23;8.10;99.90
6822;DHT22;3449;48.728;8.968;2023-11-21T12:16:52;8.10;99.90
6822;DHT22;3449;48.728;8.968;2023-11-21T12:19:20;8.20;99.90
6822;DHT22;3449;48.728;8.968;2023-11-21T12:21:48;8.20;99.90
6822;DHT22;3449;48.728;8.968;2023-11-21T12:24:16;8.30;99.90
6822;DHT22;3449;48.728;8.968;2023-11-21T12:26:43;8.30;99.90
6822;DHT22;3449;48.728;8.968;2023-11-21T12:29:10;8.30;99.90
6822;DHT22;3449;48.728;8.968;2023-11-21T12:31:37;8.40;99.90
6822;DHT22;3449;48.728;8.968;2023-11-21T12:34:06;8.40;99.90
6822;DHT22;3449;48.728;8.968;2023-11-21T12:36:34;8.40;99.90
6822;DHT22;3449;48.728;8.968;2023-11-21T12:39:02;8.40;99.90
6822;DHT22;3449;48.728;8.968;2023-11-21T12:41:29;8.40;99.90
6822;DHT22;3449;48.728;8.968;2023-11-21T12:43:57;8.30;99.90
6822;DHT22;3449;48.728;8.968;2023-11-21T12:46:25;8.20;99.90
6822;DHT22;3449;48.728;8.968;2023-11-21T12:48:55;8.20;99.90
6822;DHT22;3449;48.728;8.968;2023-11-21T12:51:23;8.30;99.90
6822;DHT22;3449;48.728;8.968;2023-11-21T12:53:51;8.30;99.90
6822;DHT22;3449;48.728;8.968;2023-11-21T12:56:18;8.40;99.90
6822;DHT22;3449;48.728;8.968;2023-11-21T12:58:49;8.40;99.90
6822;DHT22;3449;48.728;8.968;2023-11-21T13:01:17;8.30;99.90
6822;DHT22;3449;48.728;8.968;2023-11-21T13:03:47;8.30;99.90
6822;DHT22;3449;48.728;8.968;2023-11-21T13:06:17;8.40;99.90
6822;DHT22;3449;48.728;8.968;2023-11-21T13:08:46;8.40;99.90
6822;DHT22;3449;48.728;8.968;2023-11-21T13:11:13;8.40;99.90
6822;DHT22;3449;48.728;8.968;2023-11-21T13:13:41;8.40;99.90
6822;DHT22;3449;48.728;8.968;2023-11-21T13:16:09;8.50;99.90
6822;DHT22;3449;48.728;8.968;2023-11-21T13:18:36;8.60;99.90
6822;DHT22;3449;48.728;8.968;2023-11-21T13:21:06;8.60;99.90
6822;DHT22;3449;48.728;8.968;2023-11-21T13:23:37;8.70;99.90
6822;DHT22;3449;48.728;8.968;2023-11-21T13:26:05;8.80;99.90
6822;DHT22;3449;48.728;8.968;2023-11-21T13:28:34;8.80;99.90
6822;DHT22;3449;48.728;8.968;2023-11-21T13:31:04;8.90;99.90
6822;DHT22;3449;48.728;8.968;2023-11-21T13:33:35;9.00;99.90
6822;DHT22;3449;48.728;8.968;2023-11-21T13:36:04;9.00;99.90
6822;DHT22;3449;48.728;8.968;2023-11-21T13:38:33;8.90;99.90
6822;DHT22;3449;48.728;8.968;2023-11-21T13:41:01;8.90;99.90
6822;DHT22;3449;48.728;8.968;2023-11-21T13:43:34;8.70;99.90
6822;DHT22;3449;48.728;8.968;2023-11-21T13:46:02;8.50;99.90
6822;DHT22;3449;48.728;8.968;2023-11-21T13:48:38;8.40;99.90
6822;DHT22;3449;48.728;8.968;2023-11-21T13:51:08;8.30;99.90
6822;DHT22;3449;48.728;8.968;2023-11-21T13:53:42;8.10;99.90
6822;DHT22;3449;48.728;8.968;2023-11-21T13:56:10;8.00;99.90
6822;DHT22;3449;48.728;8.968;2023-11-21T13:58:39;7.90;99.90
6822;DHT22;3449;48.728;8.968;2023-11-21T14:01:12;7.90;99.90
6822;DHT22;3449;48.728;8.968;2023-11-21T14:03:58;7.80;99.90
6822;DHT22;3449;48.728;8.968;2023-11-21T14:06:34;7.80;99.90
6822;DHT22;3449;48.728;8.968;2023-11-21T14:09:09;7.70;99.90
6822;DHT22;3449;48.728;8.968;2023-11-21T14:11:39;7.80;99.90
6822;DHT22;3449;48.728;8.968;2023-11-21T14:14:07;7.80;99.90
6822;DHT22;3449;48.728;8.968;2023-11-21T14:16:35;7.80;99.90
6822;DHT22;3449;48.728;8.968;2023-11-21T14:19:02;7.80;99.90
6822;DHT22;3449;48.728;8.968;2023-11-21T14:21:39;7.80;99.90
6822;DHT22;3449;48.728;8.968;2023-11-21T14:24:08;7.70;99.90
6822;DHT22;3449;48.728;8.968;2023-11-21T14:26:35;7.70;99.90
6822;DHT22;3449;48.728;8.968;2023-11-21T14:29:02;7.70;99.90
6822;DHT22;3449;48.728;8.968;2023-11-21T14:31:31;7.70;99.90
6822;DHT22;3449;48.728;8.968;2023-11-21T14:33:59;7.70;99.90
6822;DHT22;3449;48.728;8.968;2023-11-21T14:36:27;7.70;99.90
6822;DHT22;3449;48.728;8.968;2023-11-21T14:38:54;7.80;99.90
6822;DHT22;3449;48.728;8.968;2023-11-21T14:41:21;7.80;99.90
6822;DHT22;3449;48.728;8.968;2023-11-21T14:43:47;7.80;99.90
6822;DHT22;3449;48.728;8.968;2023-11-21T14:46:15;7.90;99.90
6822;DHT22;3449;48.728;8.968;2023-11-21T14:48:46;7.80;99.90
6822;DHT22;3449;48.728;8.968;2023-11-21T14:51:24;7.90;99.90
6822;DHT22;3449;48.728;8.968;2023-11-21T14:53:58;7.80;99.90
6822;DHT22;3449;48.728;8.968;2023-11-21T14:56:32;7.80;99.90
6822;DHT22;3449;48.728;8.968;2023-11-21T14:59:00;7.80;99.90
6822;DHT22;3449;48.728;8.968;2023-11-21T15:01:31;7.70;99.90
6822;DHT22;3449;48.728;8.968;2023-11-21T15:04:11;7.70;99.90
6822;DHT22;3449;48.728;8.968;2023-11-21T15:06:58;7.70;99.90
6822;DHT22;3449;48.728;8.968;2023-11-21T15:09:25;7.60;99.90
6822;DHT22;3449;48.728;8.968;2023-11-21T15:12:01;7.60;99.90
6822;DHT22;3449;48.728;8.968;2023-11-21T15:14:38;7.60;99.90
6822;DHT22;3449;48.728;8.968;2023-11-21T15:17:04;7.50;99.90
6822;DHT22;3449;48.728;8.968;2023-11-21T15:19:34;7.50;99.90
6822;DHT22;3449;48.728;8.968;2023-11-21T15:22:01;7.40;99.90
6822;DHT22;3449;48.728;8.968;2023-11-21T15:24:28;7.40;99.90
6822;DHT22;3449;48.728;8.968;2023-11-21T15:26:55;7.40;99.90
6822;DHT22;3449;48.728;8.968;2023-11-21T15:29:22;7.40;99.90
6822;DHT22;3449;48.728;8.968;2023-11-21T15:31:49;7.40;99.90
6822;DHT22;3449;48.728;8.968;2023-11-21T15:34:21;7.30;99.90
6822;DHT22;3449;48.728;8.968;2023-11-21T15:36:49;7.30;99.90
6822;DHT22;3449;48.728;8.968;2023-11-21T15:39:19;7.30;99.90
6822;DHT22;3449;48.728;8.968;2023-11-21T15:41:49;7.30;99.90
6822;DHT22;3449;48.728;8.968;2023-11-21T15:44:16;7.30;99.90
6822;DHT22;3449;48.728;8.968;2023-11-21T15:46:43;7.30;99.90
6822;DHT22;3449;48.728;8.968;2023-11-21T15:49:10;7.30;99.90
6822;DHT22;3449;48.728;8.968;2023-11-21T15:51:39;7.30;99.90
6822;DHT22;3449;48.728;8.968;2023-11-21T15:54:09;7.30;99.90
6822;DHT22;3449;48.728;8.968;2023-11-21T15:56:38;7.30;99.90
6822;DHT22;3449;48.728;8.968;2023-11-21T15:59:05;7.30;99.90
6822;DHT22;3449;48.728;8.968;2023-11-21T16:01:32;7.30;99.90
6822;DHT22;3449;48.728;8.968;2023-11-21T16:04:00;7.30;99.90
6822;DHT22;3449;48.728;8.968;2023-11-21T16:06:28;7.30;99.90
6822;DHT22;3449;48.728;8.968;2023-11-21T16:08:56;7.30;99.90
6822;DHT22;3449;48.728;8.968;2023-11-21T16:11:25;7.30;99.90
6822;DHT22;3449;48.728;8.968;2023-11-21T16:13:55;7.20;99.90
6822;DHT22;3449;48.728;8.968;2023-11-21T16:16:22;7.30;99.90
6822;DHT22;3449;48.728;8.968;2023-11-21T16:18:49;7.20;99.90
6822;DHT22;3449;48.728;8.968;2023-11-21T16:21:16;7.20;99.90
6822;DHT22;3449;48.728;8.968;2023-11-21T16:23:43;7.20;99.90
6822;DHT22;3449;48.728;8.968;2023-11-21T16:26:10;7.20;99.90